Terminal Aerodrome Forecast
Issued by NWS Portland, ME

Home | Current Version | Previous Version | Text Only | Print | Product List | Glossary On
Versions: 1 2 3 4 5 6 7 8 9 10 11 12 13 14
000
FTUS41 KGYX 251720
TAFPWM
TAF
KPWM 251720Z 2518/2618 18010G20KT P6SM SCT100 BKN250
     FM260200 21006KT P6SM SCT050 BKN100
     FM260900 22004KT P6SM BKN025 BKN050
     FM261300 23005KT P6SM SCT050 BKN100=

USA.gov is the U.S. government's official web portal to all federal, state and local government web resources and services.